Terminal Aerodrome Forecast
Issued by NWS

Current Version | Previous Version | Text Only | Print | Product List | Glossary Off
Versions: 1 2 3 4 5 6 7 8 9 10 11 12 13 14 15 16 17 18 19

000
FTUS41 KILN 252300
TAFLCK
TAF
KLCK 252339Z 2600/2624 22005KT P6SM SCT120 BKN200
     FM260900 18003KT P6SM SCT080
     FM261400 22012KT P6SM SCT030 SCT100 BKN250
     FM262000 22010KT P6SM VCTS SCT030CB BKN250=

USA.gov is the U.S. government's official web portal to all federal, state and local government web resources and services.